createdAt,value
2018-03-18T00:00:44.672Z,14.68
2018-03-18T00:03:12.950Z,14.55
2018-03-18T00:05:41.625Z,14.69
2018-03-18T00:08:10.059Z,14.79
2018-03-18T00:10:38.501Z,14.76
2018-03-18T00:13:06.769Z,14.82
2018-03-18T00:15:35.278Z,14.50
2018-03-18T00:18:03.630Z,14.43
2018-03-18T00:20:31.990Z,14.09
2018-03-18T00:23:00.382Z,14.00
2018-03-18T00:25:28.762Z,14.24
2018-03-18T00:27:58.053Z,14.01
2018-03-18T00:30:26.442Z,14.04
2018-03-18T00:32:54.613Z,14.07
2018-03-18T00:35:23.089Z,13.81
2018-03-18T00:37:51.473Z,14.17
2018-03-18T00:40:19.761Z,14.32
2018-03-18T00:42:48.176Z,14.10
2018-03-18T00:45:16.408Z,14.43
2018-03-18T00:47:45.393Z,14.52
2018-03-18T00:50:13.753Z,14.67
2018-03-18T00:52:42.401Z,14.63
2018-03-18T00:55:10.630Z,14.22
2018-03-18T00:57:38.806Z,14.14
2018-03-18T01:00:07.282Z,13.96
2018-03-18T01:02:35.703Z,14.00
2018-03-18T01:05:04.038Z,14.03
2018-03-18T01:07:32.418Z,14.44
2018-03-18T01:10:00.788Z,14.13
2018-03-18T01:12:29.174Z,14.36
2018-03-18T01:14:57.249Z,14.42
2018-03-18T01:17:25.620Z,14.52
2018-03-18T01:19:53.892Z,14.66
2018-03-18T01:22:22.175Z,14.71
2018-03-18T01:24:50.951Z,14.60
2018-03-18T01:27:19.023Z,14.74
2018-03-18T01:29:47.202Z,14.77
2018-03-18T01:32:15.793Z,14.79
2018-03-18T01:34:44.265Z,14.83
2018-03-18T01:37:12.711Z,14.75
2018-03-18T01:39:41.017Z,14.78
2018-03-18T01:42:09.607Z,14.77
2018-03-18T01:44:37.993Z,14.62
2018-03-18T01:47:06.262Z,14.33
2018-03-18T01:49:34.738Z,14.22
2018-03-18T01:52:03.215Z,14.14
2018-03-18T01:54:31.700Z,14.41
2018-03-18T01:57:00.061Z,14.50
2018-03-18T01:59:28.254Z,14.22
2018-03-18T02:01:56.735Z,14.47
2018-03-18T02:04:25.212Z,14.12
2018-03-18T02:06:53.684Z,14.38
2018-03-18T02:09:22.175Z,14.49
2018-03-18T02:11:50.566Z,14.53
2018-03-18T02:14:18.956Z,14.58
2018-03-18T02:16:47.189Z,14.64
2018-03-18T02:19:15.784Z,14.71
2018-03-18T02:21:44.157Z,13.99
2018-03-18T02:24:12.649Z,13.69
2018-03-18T02:26:41.130Z,13.77
2018-03-18T02:29:09.284Z,14.10
2018-03-18T02:31:37.676Z,14.19
2018-03-18T02:34:06.040Z,14.35
2018-03-18T02:36:34.533Z,13.69
2018-03-18T02:39:03.018Z,13.10
2018-03-18T02:41:31.143Z,13.10
2018-03-18T02:43:59.669Z,13.52
2018-03-18T02:46:28.046Z,13.79
2018-03-18T02:48:56.257Z,13.27
2018-03-18T02:51:24.789Z,13.47
2018-03-18T02:53:53.286Z,13.12
2018-03-18T02:56:21.463Z,13.21
2018-03-18T02:58:49.845Z,13.36
2018-03-18T03:01:18.294Z,13.63
2018-03-18T03:03:46.794Z,13.53
2018-03-18T03:06:14.931Z,13.61
2018-03-18T03:08:43.548Z,13.16
2018-03-18T03:11:11.826Z,13.40
2018-03-18T03:13:40.404Z,13.69
2018-03-18T03:16:09.094Z,13.60
2018-03-18T03:18:37.255Z,13.26
2018-03-18T03:21:05.893Z,12.92
2018-03-18T03:23:34.233Z,13.56
2018-03-18T03:26:02.408Z,13.75
2018-03-18T03:28:30.577Z,13.44
2018-03-18T03:30:59.067Z,13.66
2018-03-18T03:33:27.334Z,13.86
2018-03-18T03:35:55.796Z,13.08
2018-03-18T03:38:24.094Z,13.40
2018-03-18T03:40:52.564Z,13.48
2018-03-18T03:43:20.949Z,13.18
2018-03-18T03:45:49.118Z,13.42
2018-03-18T03:48:17.598Z,13.75
2018-03-18T03:50:45.773Z,13.80
2018-03-18T03:53:14.353Z,13.81
2018-03-18T03:55:42.535Z,13.98
2018-03-18T03:58:10.995Z,14.08
2018-03-18T04:00:39.190Z,14.15
2018-03-18T04:03:07.357Z,14.23
2018-03-18T04:05:35.836Z,14.33
2018-03-18T04:08:04.420Z,14.30
2018-03-18T04:10:32.697Z,14.03
2018-03-18T04:13:01.381Z,14.23
2018-03-18T04:15:29.757Z,14.33
2018-03-18T04:17:58.063Z,14.36
2018-03-18T04:20:25.987Z,14.38
2018-03-18T04:22:54.495Z,14.53
2018-03-18T04:25:22.965Z,14.39
2018-03-18T04:27:51.379Z,14.40
2018-03-18T04:30:19.823Z,14.42
2018-03-18T04:32:48.405Z,14.41
2018-03-18T04:35:16.582Z,14.51
2018-03-18T04:37:45.058Z,14.45
2018-03-18T04:40:13.277Z,14.46
2018-03-18T04:42:41.814Z,14.37
2018-03-18T04:45:10.298Z,14.57
2018-03-18T04:47:38.775Z,14.72
2018-03-18T04:50:07.049Z,14.58
2018-03-18T04:52:35.418Z,14.26
2018-03-18T04:55:04.021Z,14.40
2018-03-18T04:57:32.393Z,14.05
2018-03-18T05:00:00.877Z,14.33
2018-03-18T05:02:29.454Z,14.36
2018-03-18T05:04:57.828Z,14.40
2018-03-18T05:07:26.240Z,14.44
2018-03-18T05:09:54.586Z,14.51
2018-03-18T05:12:22.852Z,14.46
2018-03-18T05:14:50.758Z,14.49
2018-03-18T05:17:19.108Z,14.50
2018-03-18T05:19:47.480Z,14.24
2018-03-18T05:22:15.752Z,14.38
2018-03-18T05:24:44.236Z,14.58
2018-03-18T05:27:12.609Z,14.58
2018-03-18T05:29:41.197Z,14.63
2018-03-18T05:32:09.680Z,14.51
2018-03-18T05:34:37.957Z,14.58
2018-03-18T05:37:06.437Z,14.13
2018-03-18T05:39:34.570Z,14.02
2018-03-18T05:42:02.989Z,14.07
2018-03-18T05:44:31.455Z,14.15
2018-03-18T05:46:59.949Z,14.37
2018-03-18T05:49:28.200Z,14.08
2018-03-18T05:51:56.644Z,14.24
2018-03-18T05:54:25.084Z,14.33
2018-03-18T05:56:53.640Z,14.23
2018-03-18T05:59:21.940Z,14.31
2018-03-18T06:01:50.016Z,13.70
2018-03-18T06:04:18.378Z,13.36
2018-03-18T06:06:46.756Z,13.63
2018-03-18T06:09:15.146Z,13.79
2018-03-18T06:11:43.625Z,14.00
2018-03-18T06:14:12.001Z,13.52
2018-03-18T06:16:40.981Z,13.18
2018-03-18T06:19:09.182Z,12.99
2018-03-18T06:21:37.762Z,13.08
2018-03-18T06:24:06.065Z,12.89
2018-03-18T06:26:34.435Z,12.82
2018-03-18T06:29:02.784Z,12.83
2018-03-18T06:31:31.278Z,12.78
2018-03-18T06:33:59.636Z,12.60
2018-03-18T06:36:28.330Z,12.58
2018-03-18T06:38:57.626Z,12.62
2018-03-18T06:41:26.026Z,12.66
2018-03-18T06:43:54.199Z,12.47
2018-03-18T06:46:22.386Z,12.32
2018-03-18T06:48:50.690Z,12.31
2018-03-18T06:51:19.854Z,12.23
2018-03-18T06:53:48.206Z,12.22
2018-03-18T06:56:16.690Z,12.37
2018-03-18T06:58:44.957Z,12.36
2018-03-18T07:01:13.498Z,12.57
2018-03-18T07:03:42.026Z,12.51
2018-03-18T07:06:10.481Z,12.59
2018-03-18T07:08:38.980Z,12.79
2018-03-18T07:11:07.366Z,12.47
2018-03-18T07:13:35.841Z,12.41
2018-03-18T07:16:04.094Z,12.44
2018-03-18T07:18:32.499Z,12.87
2018-03-18T07:21:00.974Z,12.72
2018-03-18T07:23:29.248Z,12.84
2018-03-18T07:25:57.940Z,13.00
2018-03-18T07:28:26.335Z,13.40
2018-03-18T07:30:55.698Z,13.35
2018-03-18T07:33:24.087Z,13.69
2018-03-18T07:35:52.464Z,13.82
2018-03-18T07:38:20.834Z,13.59
2018-03-18T07:40:49.328Z,13.69
2018-03-18T07:43:17.606Z,13.87
2018-03-18T07:45:46.193Z,14.20
2018-03-18T07:48:14.552Z,14.40
2018-03-18T07:50:43.048Z,14.14
2018-03-18T07:53:11.230Z,14.02
2018-03-18T07:55:40.014Z,14.12
2018-03-18T07:58:08.275Z,13.57
2018-03-18T08:00:37.179Z,13.91
2018-03-18T08:03:05.639Z,14.13
2018-03-18T08:05:34.030Z,14.17
2018-03-18T08:08:02.409Z,14.31
2018-03-18T08:10:30.962Z,14.16
2018-03-18T08:12:59.368Z,14.27
2018-03-18T08:15:27.698Z,14.19
2018-03-18T08:17:55.922Z,14.20
2018-03-18T08:20:24.187Z,14.23
2018-03-18T08:22:52.574Z,13.47
2018-03-18T08:25:21.050Z,13.16
2018-03-18T08:27:49.547Z,13.26
2018-03-18T08:30:17.904Z,12.98
2018-03-18T08:32:46.085Z,12.85
2018-03-18T08:35:15.264Z,13.26
2018-03-18T08:37:43.677Z,13.09
2018-03-18T08:40:12.041Z,13.66
2018-03-18T08:42:40.402Z,14.05
2018-03-18T08:45:08.792Z,14.04
2018-03-18T08:47:37.601Z,14.43
2018-03-18T08:50:05.964Z,14.33
2018-03-18T08:52:34.124Z,14.41
2018-03-18T08:55:02.130Z,14.36
2018-03-18T08:57:30.465Z,14.47
2018-03-18T08:59:59.163Z,14.26
2018-03-18T09:02:27.332Z,14.47
2018-03-18T09:04:55.805Z,13.88
2018-03-18T09:07:24.200Z,14.00
2018-03-18T09:09:52.560Z,13.17
2018-03-18T09:12:20.853Z,13.01
2018-03-18T09:14:49.271Z,12.97
2018-03-18T09:17:17.709Z,12.92
2018-03-18T09:19:46.208Z,12.74
2018-03-18T09:22:14.519Z,12.92
2018-03-18T09:24:42.946Z,12.73
2018-03-18T09:27:11.126Z,12.90
2018-03-18T09:29:39.437Z,12.83
2018-03-18T09:32:08.291Z,12.73
2018-03-18T09:34:36.483Z,12.85
2018-03-18T09:37:04.614Z,12.61
2018-03-18T09:39:33.109Z,12.56
2018-03-18T09:42:01.502Z,12.73
2018-03-18T09:44:29.868Z,12.65
2018-03-18T09:46:58.151Z,12.55
2018-03-18T09:49:26.726Z,12.64
2018-03-18T09:51:55.414Z,12.65
2018-03-18T09:54:23.793Z,12.75
2018-03-18T09:56:51.969Z,12.79
2018-03-18T09:59:20.346Z,12.85
2018-03-18T10:01:48.514Z,13.08
2018-03-18T10:04:16.730Z,12.88
2018-03-18T10:06:44.962Z,12.91
2018-03-18T10:09:13.221Z,13.22
2018-03-18T10:11:42.952Z,13.18
2018-03-18T10:14:11.218Z,12.99
2018-03-18T10:16:39.504Z,13.06
2018-03-18T10:19:07.982Z,13.16
2018-03-18T10:21:36.006Z,13.13
2018-03-18T10:24:03.925Z,13.22
2018-03-18T10:26:31.969Z,13.36
2018-03-18T10:29:00.556Z,13.49
2018-03-18T10:31:28.846Z,13.51
2018-03-18T10:33:57.080Z,13.37
2018-03-18T10:36:25.588Z,13.68
2018-03-18T10:38:53.875Z,13.53
2018-03-18T10:41:22.057Z,13.24
2018-03-18T10:43:50.514Z,13.37
2018-03-18T10:46:19.054Z,13.77
2018-03-18T10:48:47.448Z,13.80
2018-03-18T10:51:15.958Z,13.71
2018-03-18T10:53:44.026Z,13.49
2018-03-18T10:56:12.304Z,13.40
2018-03-18T10:58:40.611Z,13.38
2018-03-18T11:01:10.569Z,13.90
2018-03-18T11:03:39.717Z,14.20
2018-03-18T11:06:07.893Z,14.08
2018-03-18T11:08:36.360Z,13.62
2018-03-18T11:11:04.723Z,13.50
2018-03-18T11:13:33.008Z,13.35
2018-03-18T11:16:01.286Z,13.43
2018-03-18T11:18:29.757Z,13.77
2018-03-18T11:20:58.257Z,13.40
2018-03-18T11:23:26.700Z,13.18
2018-03-18T11:25:55.220Z,13.18
2018-03-18T11:28:23.351Z,13.83
2018-03-18T11:30:51.856Z,14.09
2018-03-18T11:33:20.240Z,14.08
2018-03-18T11:35:48.722Z,14.16
2018-03-18T11:38:17.205Z,14.28
2018-03-18T11:40:45.368Z,14.06
2018-03-18T11:43:17.537Z,13.82
2018-03-18T11:45:45.663Z,13.79
2018-03-18T11:48:13.893Z,13.74
2018-03-18T11:50:42.572Z,14.21
2018-03-18T11:53:10.726Z,14.45
2018-03-18T11:55:39.325Z,14.22
2018-03-18T11:58:07.846Z,13.97
2018-03-18T12:00:36.087Z,14.33
2018-03-18T12:03:04.430Z,14.36
2018-03-18T12:05:32.842Z,14.82
2018-03-18T12:08:00.891Z,14.87
2018-03-18T12:10:29.205Z,14.69
2018-03-18T12:12:57.565Z,14.36
2018-03-18T12:15:25.487Z,14.16
2018-03-18T12:17:53.711Z,13.70
2018-03-18T12:20:22.289Z,13.56
2018-03-18T12:22:51.076Z,14.08
2018-03-18T12:25:19.354Z,14.58
2018-03-18T12:27:48.032Z,14.66
2018-03-18T12:30:16.426Z,14.62
2018-03-18T12:32:44.685Z,14.83
2018-03-18T12:35:13.072Z,14.78
2018-03-18T12:37:41.449Z,15.17
2018-03-18T12:43:25.700Z,15.56
2018-03-18T12:45:54.386Z,15.09
2018-03-18T12:48:22.777Z,15.49
2018-03-18T12:50:51.771Z,15.76
2018-03-18T12:53:20.353Z,15.45
2018-03-18T12:55:48.538Z,15.65
2018-03-18T12:58:16.500Z,16.08
2018-03-18T13:00:44.447Z,16.38
2018-03-18T13:03:12.681Z,16.10
2018-03-18T13:05:40.632Z,15.80
2018-03-18T13:08:08.633Z,16.22
2018-03-18T13:10:36.545Z,16.21
2018-03-18T13:13:04.559Z,16.50
2018-03-18T13:15:32.404Z,17.02
2018-03-18T13:18:00.389Z,17.46
2018-03-18T13:20:28.405Z,17.28
2018-03-18T13:22:56.802Z,17.54
2018-03-18T13:25:24.795Z,17.38
2018-03-18T13:27:52.708Z,17.34
2018-03-18T13:30:20.750Z,17.45
2018-03-18T13:32:48.592Z,17.29
2018-03-18T13:35:16.546Z,17.81
2018-03-18T13:37:44.553Z,17.58
2018-03-18T13:40:12.530Z,17.72
2018-03-18T13:42:40.572Z,17.50
2018-03-18T13:45:08.548Z,17.83
2018-03-18T13:47:36.554Z,18.45
2018-03-18T13:50:04.631Z,18.39
2018-03-18T13:52:32.666Z,19.32
2018-03-18T13:55:00.574Z,19.54
2018-03-18T13:57:28.544Z,19.71
2018-03-18T13:59:56.579Z,19.59
2018-03-18T14:02:24.578Z,19.42
2018-03-18T14:04:52.791Z,19.08
2018-03-18T14:07:20.770Z,18.83
2018-03-18T14:09:48.782Z,18.33
2018-03-18T14:12:16.748Z,18.24
2018-03-18T14:14:44.716Z,17.65
2018-03-18T14:17:12.701Z,17.79
2018-03-18T14:19:40.664Z,18.02
2018-03-18T14:22:08.688Z,17.98
2018-03-18T14:24:36.823Z,17.47
2018-03-18T14:27:04.781Z,17.65
2018-03-18T14:29:32.669Z,17.55
2018-03-18T14:32:00.570Z,17.36
2018-03-18T14:34:28.538Z,17.44
2018-03-18T14:36:56.482Z,17.75
2018-03-18T14:39:24.431Z,18.03
2018-03-18T14:41:52.398Z,18.38
2018-03-18T14:44:20.325Z,18.81
2018-03-18T14:46:48.336Z,19.17
2018-03-18T14:49:16.364Z,19.79
2018-03-18T14:51:44.330Z,20.31
2018-03-18T14:54:12.386Z,19.98
2018-03-18T14:56:40.326Z,20.39
2018-03-18T14:59:08.269Z,20.37
2018-03-18T15:01:36.345Z,19.58
2018-03-18T15:04:04.398Z,19.59
2018-03-18T15:06:32.490Z,19.80
2018-03-18T15:09:00.510Z,19.33
2018-03-18T15:11:28.424Z,19.31
2018-03-18T15:13:56.482Z,18.50
2018-03-18T15:16:24.521Z,18.67
2018-03-18T15:18:52.499Z,17.67
2018-03-18T15:21:20.454Z,17.72
2018-03-18T15:23:48.340Z,17.52
2018-03-18T15:26:16.349Z,17.24
2018-03-18T15:28:44.356Z,16.76
2018-03-18T15:31:12.311Z,15.92
2018-03-18T15:33:40.252Z,15.65
2018-03-18T15:36:08.224Z,15.66
2018-03-18T15:38:36.285Z,15.70
2018-03-18T15:41:04.326Z,15.97
2018-03-18T15:43:32.212Z,16.35
2018-03-18T15:46:00.211Z,16.45
2018-03-18T15:48:28.154Z,16.59
2018-03-18T15:50:56.091Z,16.72
2018-03-18T15:53:24.050Z,16.48
2018-03-18T15:55:51.962Z,16.53
2018-03-18T15:58:19.958Z,15.46
2018-03-18T16:00:47.958Z,15.33
2018-03-18T16:03:15.920Z,15.68
2018-03-18T16:05:43.978Z,15.09
2018-03-18T16:08:12.109Z,15.44
2018-03-18T16:10:40.097Z,14.93
2018-03-18T16:13:08.082Z,14.89
2018-03-18T16:15:36.002Z,15.36
2018-03-18T16:18:04.484Z,15.48
2018-03-18T16:20:33.180Z,15.49
2018-03-18T16:23:01.539Z,15.52
2018-03-18T16:25:29.829Z,15.16
2018-03-18T16:27:57.761Z,14.47
2018-03-18T16:30:37.492Z,14.38
2018-03-18T16:33:05.535Z,14.70
2018-03-18T16:35:33.896Z,14.73
2018-03-18T16:38:03.209Z,14.95
2018-03-18T16:40:31.773Z,14.75
2018-03-18T16:43:00.070Z,14.74
2018-03-18T16:45:28.222Z,14.85
2018-03-18T16:47:56.214Z,14.64
2018-03-18T16:50:24.281Z,14.71
2018-03-18T16:52:52.332Z,14.71
2018-03-18T16:55:20.294Z,13.37
2018-03-18T16:57:48.279Z,14.07
2018-03-18T17:00:16.236Z,14.18
2018-03-18T17:02:44.253Z,13.77
2018-03-18T17:05:12.209Z,13.99
2018-03-18T17:07:40.175Z,14.19
2018-03-18T17:10:08.417Z,14.30
2018-03-18T17:12:36.400Z,14.14
2018-03-18T17:15:04.770Z,14.12
2018-03-18T17:17:33.150Z,14.10
2018-03-18T17:20:01.312Z,13.79
2018-03-18T17:22:29.803Z,13.92
2018-03-18T17:24:58.138Z,13.97
2018-03-18T17:27:26.249Z,13.29
2018-03-18T17:29:54.422Z,13.12
2018-03-18T17:32:22.698Z,13.07
2018-03-18T17:34:50.978Z,13.15
2018-03-18T17:37:19.653Z,13.39
2018-03-18T17:39:47.646Z,13.66
2018-03-18T17:42:15.602Z,13.77
2018-03-18T17:44:55.728Z,13.63
2018-03-18T17:47:36.960Z,13.24
2018-03-18T17:50:17.282Z,12.85
2018-03-18T17:52:57.931Z,12.86
2018-03-18T17:55:35.133Z,13.07
2018-03-18T17:58:03.129Z,13.13
2018-03-18T18:00:31.477Z,13.26
2018-03-18T18:02:59.667Z,13.32
2018-03-18T18:05:28.861Z,13.43
2018-03-18T18:07:56.805Z,13.41
2018-03-18T18:10:25.017Z,13.38
2018-03-18T18:12:52.957Z,13.30
2018-03-18T18:15:20.964Z,13.16
2018-03-18T18:17:48.933Z,12.53
2018-03-18T18:20:16.930Z,12.76
2018-03-18T18:22:44.870Z,12.98
2018-03-18T18:25:12.928Z,12.63
2018-03-18T18:27:40.876Z,12.13
2018-03-18T18:30:08.906Z,12.40
2018-03-18T18:32:36.829Z,12.04
2018-03-18T18:35:04.878Z,12.30
2018-03-18T18:37:32.859Z,12.44
2018-03-18T18:40:00.954Z,12.71
2018-03-18T18:42:29.017Z,12.60
2018-03-18T18:44:57.057Z,12.42
2018-03-18T18:47:25.052Z,12.60
2018-03-18T18:49:53.030Z,12.71
2018-03-18T18:52:20.998Z,12.73
2018-03-18T18:54:49.000Z,12.43
2018-03-18T18:57:16.993Z,12.64
2018-03-18T18:59:44.983Z,12.58
2018-03-18T19:02:12.996Z,12.58
2018-03-18T19:04:41.010Z,12.70
2018-03-18T19:07:09.065Z,12.67
2018-03-18T19:09:37.137Z,12.42
2018-03-18T19:12:05.343Z,11.88
2018-03-18T19:14:33.311Z,11.43
2018-03-18T19:17:01.343Z,11.61
2018-03-18T19:19:29.331Z,11.86
2018-03-18T19:21:57.322Z,12.05
2018-03-18T19:24:25.295Z,11.91
2018-03-18T19:26:53.288Z,12.28
2018-03-18T19:29:21.214Z,12.38
2018-03-18T19:31:49.164Z,12.48
2018-03-18T19:34:17.130Z,12.51
2018-03-18T19:36:45.155Z,11.85
2018-03-18T19:39:13.303Z,12.11
2018-03-18T19:41:41.410Z,11.87
2018-03-18T19:44:09.417Z,11.93
2018-03-18T19:46:37.460Z,12.22
2018-03-18T19:49:05.546Z,12.09
2018-03-18T19:51:33.623Z,11.62
2018-03-18T19:54:01.607Z,11.40
2018-03-18T19:56:29.638Z,11.39
2018-03-18T19:58:57.607Z,11.80
2018-03-18T20:01:25.675Z,12.21
2018-03-18T20:07:24.562Z,12.49
2018-03-18T20:09:52.537Z,12.58
2018-03-18T20:12:20.682Z,12.56
2018-03-18T20:14:48.657Z,12.49
2018-03-18T20:17:16.675Z,12.59
2018-03-18T20:19:44.692Z,12.72
2018-03-18T20:22:12.735Z,12.55
2018-03-18T20:24:41.738Z,12.71
2018-03-18T20:27:09.746Z,12.75
2018-03-18T20:29:37.668Z,12.70
2018-03-18T20:32:05.615Z,12.83
2018-03-18T20:34:33.502Z,12.77
2018-03-18T20:37:01.509Z,12.87
2018-03-18T20:39:29.546Z,12.78
2018-03-18T20:41:57.596Z,12.87
2018-03-18T20:44:25.651Z,12.92
2018-03-18T20:46:53.654Z,12.98
2018-03-18T20:49:21.642Z,13.00
2018-03-18T20:51:49.615Z,13.05
2018-03-18T20:54:17.602Z,13.10
2018-03-18T20:56:45.613Z,13.05
2018-03-18T20:59:13.606Z,13.04
2018-03-18T21:01:41.641Z,13.00
2018-03-18T21:04:09.657Z,13.01
2018-03-18T21:06:37.617Z,12.83
2018-03-18T21:09:05.662Z,12.67
2018-03-18T21:11:33.547Z,12.88
2018-03-18T21:14:01.849Z,12.99
2018-03-18T21:16:29.831Z,12.85
2018-03-18T21:18:57.823Z,12.86
2018-03-18T21:21:25.755Z,12.98
2018-03-18T21:23:53.811Z,13.03
2018-03-18T21:26:22.905Z,13.09
2018-03-18T21:28:50.838Z,13.12
2018-03-18T21:31:18.840Z,13.16
2018-03-18T21:33:46.777Z,13.14
2018-03-18T21:36:14.623Z,13.12
2018-03-18T21:38:42.546Z,13.09
2018-03-18T21:41:10.516Z,12.93
2018-03-18T21:43:38.453Z,12.85
2018-03-18T21:46:06.442Z,12.89
2018-03-18T21:48:34.410Z,12.51
2018-03-18T21:51:02.462Z,12.65
2018-03-18T21:53:30.394Z,12.91
2018-03-18T21:55:58.412Z,13.00
2018-03-18T21:58:26.458Z,13.02
2018-03-18T22:00:54.450Z,13.05
2018-03-18T22:03:22.466Z,13.15
2018-03-18T22:05:50.442Z,12.70
2018-03-18T22:08:18.444Z,13.04
2018-03-18T22:10:46.417Z,13.15
2018-03-18T22:13:14.378Z,13.19
2018-03-18T22:15:42.578Z,12.94
2018-03-18T22:18:10.560Z,13.04
2018-03-18T22:20:38.493Z,12.93
2018-03-18T22:23:06.405Z,12.48
2018-03-18T22:25:34.429Z,11.89
2018-03-18T22:28:02.418Z,12.06
2018-03-18T22:30:30.404Z,12.48
2018-03-18T22:32:58.411Z,12.51
2018-03-18T22:35:26.458Z,12.14
2018-03-18T22:37:54.510Z,11.91
2018-03-18T22:40:22.543Z,12.06
2018-03-18T22:42:50.567Z,12.07
2018-03-18T22:45:18.557Z,12.26
2018-03-18T22:47:46.526Z,12.63
2018-03-18T22:50:14.704Z,12.57
2018-03-18T22:52:42.841Z,12.30
2018-03-18T22:55:10.841Z,12.73
2018-03-18T22:57:38.873Z,12.30
2018-03-18T23:00:07.017Z,12.18
2018-03-18T23:02:35.100Z,12.50
2018-03-18T23:05:03.132Z,12.56
2018-03-18T23:07:31.073Z,12.39
2018-03-18T23:09:59.150Z,12.61
2018-03-18T23:12:27.069Z,12.69
2018-03-18T23:14:55.001Z,12.66
2018-03-18T23:17:22.993Z,12.67
2018-03-18T23:19:51.011Z,12.46
2018-03-18T23:22:18.952Z,12.51
2018-03-18T23:24:46.889Z,12.61
2018-03-18T23:27:14.837Z,12.66
2018-03-18T23:29:42.865Z,12.68
2018-03-18T23:32:10.891Z,12.70
2018-03-18T23:34:38.924Z,12.78
2018-03-18T23:37:06.874Z,12.72
2018-03-18T23:39:34.886Z,12.71
2018-03-18T23:42:03.022Z,12.54
2018-03-18T23:44:30.983Z,12.09
2018-03-18T23:46:58.913Z,12.29
2018-03-18T23:49:26.856Z,11.76
2018-03-18T23:51:54.864Z,11.91
2018-03-18T23:54:22.860Z,12.38
2018-03-18T23:56:50.842Z,12.38
2018-03-18T23:59:18.814Z,11.78
